sensor_id;sensor_type;location;lat;lon;timestamp;P1;durP1;ratioP1;P2;durP2;ratioP2
2624;SDS011;1322;53.256;10.386;2022-10-16T00:02:00;12.63;;;5.20;;
2624;SDS011;1322;53.256;10.386;2022-10-16T00:04:25;5.33;;;4.83;;
2624;SDS011;1322;53.256;10.386;2022-10-16T00:06:51;8.23;;;5.77;;
2624;SDS011;1322;53.256;10.386;2022-10-16T00:09:16;6.40;;;5.37;;
2624;SDS011;1322;53.256;10.386;2022-10-16T00:11:42;4.87;;;4.33;;
2624;SDS011;1322;53.256;10.386;2022-10-16T00:14:09;5.27;;;4.77;;
2624;SDS011;1322;53.256;10.386;2022-10-16T00:16:37;5.00;;;4.50;;
2624;SDS011;1322;53.256;10.386;2022-10-16T00:19:03;5.63;;;4.67;;
2624;SDS011;1322;53.256;10.386;2022-10-16T00:21:29;5.10;;;4.60;;
2624;SDS011;1322;53.256;10.386;2022-10-16T00:23:57;9.87;;;5.80;;
2624;SDS011;1322;53.256;10.386;2022-10-16T00:26:28;7.40;;;4.60;;
2624;SDS011;1322;53.256;10.386;2022-10-16T00:28:55;13.43;;;4.90;;
2624;SDS011;1322;53.256;10.386;2022-10-16T00:31:22;6.53;;;5.00;;
2624;SDS011;1322;53.256;10.386;2022-10-16T00:33:48;5.83;;;4.67;;
2624;SDS011;1322;53.256;10.386;2022-10-16T00:36:16;5.37;;;4.87;;
2624;SDS011;1322;53.256;10.386;2022-10-16T00:38:43;9.30;;;4.97;;
2624;SDS011;1322;53.256;10.386;2022-10-16T00:41:17;9.70;;;5.33;;
2624;SDS011;1322;53.256;10.386;2022-10-16T00:49:02;7.33;;;4.97;;
2624;SDS011;1322;53.256;10.386;2022-10-16T00:54:25;5.77;;;4.87;;
2624;SDS011;1322;53.256;10.386;2022-10-16T00:56:54;5.97;;;4.27;;
2624;SDS011;1322;53.256;10.386;2022-10-16T00:59:32;6.20;;;4.30;;
2624;SDS011;1322;53.256;10.386;2022-10-16T01:02:04;7.20;;;4.13;;
2624;SDS011;1322;53.256;10.386;2022-10-16T01:04:32;4.93;;;3.50;;
2624;SDS011;1322;53.256;10.386;2022-10-16T01:07:06;4.90;;;4.00;;
2624;SDS011;1322;53.256;10.386;2022-10-16T01:12:20;3.83;;;3.43;;
2624;SDS011;1322;53.256;10.386;2022-10-16T01:14:58;4.70;;;3.70;;
2624;SDS011;1322;53.256;10.386;2022-10-16T01:17:46;4.77;;;3.80;;
2624;SDS011;1322;53.256;10.386;2022-10-16T01:23:04;5.00;;;3.40;;
2624;SDS011;1322;53.256;10.386;2022-10-16T01:25:59;3.90;;;3.27;;
2624;SDS011;1322;53.256;10.386;2022-10-16T01:29:14;6.10;;;2.93;;
2624;SDS011;1322;53.256;10.386;2022-10-16T01:31:40;8.70;;;3.10;;
2624;SDS011;1322;53.256;10.386;2022-10-16T01:34:16;4.50;;;3.13;;
2624;SDS011;1322;53.256;10.386;2022-10-16T01:36:53;7.10;;;3.00;;
2624;SDS011;1322;53.256;10.386;2022-10-16T01:39:24;3.87;;;2.60;;
2624;SDS011;1322;53.256;10.386;2022-10-16T01:42:01;2.63;;;2.20;;
2624;SDS011;1322;53.256;10.386;2022-10-16T01:44:33;9.13;;;2.90;;
2624;SDS011;1322;53.256;10.386;2022-10-16T01:47:01;3.03;;;2.63;;
2624;SDS011;1322;53.256;10.386;2022-10-16T01:49:29;4.13;;;2.63;;
2624;SDS011;1322;53.256;10.386;2022-10-16T01:51:58;2.90;;;2.57;;
2624;SDS011;1322;53.256;10.386;2022-10-16T01:54:27;3.13;;;2.13;;
2624;SDS011;1322;53.256;10.386;2022-10-16T01:56:55;4.00;;;2.00;;
2624;SDS011;1322;53.256;10.386;2022-10-16T01:59:23;4.20;;;2.30;;
2624;SDS011;1322;53.256;10.386;2022-10-16T02:01:58;4.60;;;1.87;;
2624;SDS011;1322;53.256;10.386;2022-10-16T02:05:00;2.77;;;2.10;;
2624;SDS011;1322;53.256;10.386;2022-10-16T02:07:23;5.17;;;2.30;;
2624;SDS011;1322;53.256;10.386;2022-10-16T02:09:48;3.80;;;2.20;;
2624;SDS011;1322;53.256;10.386;2022-10-16T02:12:16;2.37;;;2.17;;
2624;SDS011;1322;53.256;10.386;2022-10-16T02:14:48;4.43;;;1.90;;
2624;SDS011;1322;53.256;10.386;2022-10-16T02:17:16;4.13;;;2.50;;
2624;SDS011;1322;53.256;10.386;2022-10-16T02:19:43;2.47;;;1.90;;
2624;SDS011;1322;53.256;10.386;2022-10-16T02:22:22;2.90;;;1.70;;
2624;SDS011;1322;53.256;10.386;2022-10-16T02:27:29;4.97;;;1.93;;
2624;SDS011;1322;53.256;10.386;2022-10-16T02:30:07;7.43;;;2.10;;
2624;SDS011;1322;53.256;10.386;2022-10-16T02:32:45;7.67;;;2.27;;
2624;SDS011;1322;53.256;10.386;2022-10-16T02:35:13;4.60;;;2.30;;
2624;SDS011;1322;53.256;10.386;2022-10-16T02:37:42;4.17;;;1.57;;
2624;SDS011;1322;53.256;10.386;2022-10-16T02:40:08;4.93;;;1.70;;
2624;SDS011;1322;53.256;10.386;2022-10-16T02:42:36;2.97;;;1.53;;
2624;SDS011;1322;53.256;10.386;2022-10-16T02:45:03;2.80;;;2.27;;
2624;SDS011;1322;53.256;10.386;2022-10-16T02:47:30;2.30;;;1.77;;
2624;SDS011;1322;53.256;10.386;2022-10-16T02:49:55;3.73;;;1.80;;
2624;SDS011;1322;53.256;10.386;2022-10-16T02:52:21;5.60;;;2.20;;
2624;SDS011;1322;53.256;10.386;2022-10-16T02:54:47;3.37;;;2.20;;
2624;SDS011;1322;53.256;10.386;2022-10-16T02:57:12;3.50;;;2.00;;
2624;SDS011;1322;53.256;10.386;2022-10-16T02:59:38;2.10;;;1.80;;
2624;SDS011;1322;53.256;10.386;2022-10-16T03:02:04;3.60;;;1.70;;
2624;SDS011;1322;53.256;10.386;2022-10-16T03:04:29;3.47;;;1.60;;
2624;SDS011;1322;53.256;10.386;2022-10-16T03:06:55;3.83;;;1.40;;
2624;SDS011;1322;53.256;10.386;2022-10-16T03:09:20;6.67;;;1.90;;
2624;SDS011;1322;53.256;10.386;2022-10-16T03:11:46;4.90;;;1.57;;
2624;SDS011;1322;53.256;10.386;2022-10-16T03:14:12;2.67;;;1.83;;
2624;SDS011;1322;53.256;10.386;2022-10-16T03:16:38;8.43;;;2.27;;
2624;SDS011;1322;53.256;10.386;2022-10-16T03:19:03;6.07;;;1.90;;
2624;SDS011;1322;53.256;10.386;2022-10-16T03:21:29;2.73;;;1.80;;
2624;SDS011;1322;53.256;10.386;2022-10-16T03:23:55;4.57;;;1.70;;
2624;SDS011;1322;53.256;10.386;2022-10-16T03:26:20;5.70;;;1.83;;
2624;SDS011;1322;53.256;10.386;2022-10-16T03:28:46;2.20;;;1.80;;
2624;SDS011;1322;53.256;10.386;2022-10-16T03:31:11;1.50;;;1.30;;
2624;SDS011;1322;53.256;10.386;2022-10-16T03:33:37;4.70;;;2.00;;
2624;SDS011;1322;53.256;10.386;2022-10-16T03:36:03;3.57;;;1.43;;
2624;SDS011;1322;53.256;10.386;2022-10-16T03:38:29;3.60;;;1.70;;
2624;SDS011;1322;53.256;10.386;2022-10-16T03:40:54;3.00;;;1.90;;
2624;SDS011;1322;53.256;10.386;2022-10-16T03:43:20;4.13;;;1.60;;
2624;SDS011;1322;53.256;10.386;2022-10-16T03:45:45;2.07;;;1.60;;
2624;SDS011;1322;53.256;10.386;2022-10-16T03:48:11;5.07;;;1.60;;
2624;SDS011;1322;53.256;10.386;2022-10-16T03:50:37;3.73;;;1.70;;
2624;SDS011;1322;53.256;10.386;2022-10-16T03:53:02;4.27;;;1.60;;
2624;SDS011;1322;53.256;10.386;2022-10-16T03:55:28;2.13;;;1.50;;
2624;SDS011;1322;53.256;10.386;2022-10-16T03:57:54;3.93;;;1.43;;
2624;SDS011;1322;53.256;10.386;2022-10-16T04:00:19;2.40;;;1.63;;
2624;SDS011;1322;53.256;10.386;2022-10-16T04:02:45;2.67;;;1.70;;
2624;SDS011;1322;53.256;10.386;2022-10-16T04:05:11;6.87;;;1.80;;
2624;SDS011;1322;53.256;10.386;2022-10-16T04:07:36;3.33;;;1.50;;
2624;SDS011;1322;53.256;10.386;2022-10-16T04:10:03;6.50;;;2.37;;
2624;SDS011;1322;53.256;10.386;2022-10-16T04:12:29;1.90;;;1.57;;
2624;SDS011;1322;53.256;10.386;2022-10-16T04:14:54;5.60;;;1.80;;
2624;SDS011;1322;53.256;10.386;2022-10-16T04:17:20;5.43;;;1.80;;
2624;SDS011;1322;53.256;10.386;2022-10-16T04:19:46;5.90;;;2.27;;
2624;SDS011;1322;53.256;10.386;2022-10-16T04:22:11;4.97;;;1.80;;
2624;SDS011;1322;53.256;10.386;2022-10-16T04:24:37;5.70;;;1.87;;
2624;SDS011;1322;53.256;10.386;2022-10-16T04:27:02;2.03;;;1.70;;
2624;SDS011;1322;53.256;10.386;2022-10-16T04:29:28;2.23;;;1.63;;
2624;SDS011;1322;53.256;10.386;2022-10-16T04:31:54;8.80;;;2.13;;
2624;SDS011;1322;53.256;10.386;2022-10-16T04:34:19;2.93;;;2.00;;
2624;SDS011;1322;53.256;10.386;2022-10-16T04:36:48;2.67;;;2.00;;
2624;SDS011;1322;53.256;10.386;2022-10-16T04:39:14;7.00;;;1.93;;
2624;SDS011;1322;53.256;10.386;2022-10-16T04:41:40;3.37;;;2.30;;
2624;SDS011;1322;53.256;10.386;2022-10-16T04:44:06;6.53;;;2.00;;
2624;SDS011;1322;53.256;10.386;2022-10-16T04:46:31;4.07;;;2.90;;
2624;SDS011;1322;53.256;10.386;2022-10-16T04:48:57;3.17;;;2.83;;
2624;SDS011;1322;53.256;10.386;2022-10-16T04:51:23;4.07;;;2.70;;
2624;SDS011;1322;53.256;10.386;2022-10-16T04:53:49;4.60;;;2.10;;
2624;SDS011;1322;53.256;10.386;2022-10-16T04:56:14;5.63;;;1.77;;
2624;SDS011;1322;53.256;10.386;2022-10-16T04:58:40;2.13;;;1.80;;
2624;SDS011;1322;53.256;10.386;2022-10-16T05:01:06;4.47;;;2.07;;
2624;SDS011;1322;53.256;10.386;2022-10-16T05:03:31;3.20;;;2.07;;
2624;SDS011;1322;53.256;10.386;2022-10-16T05:05:57;3.53;;;1.90;;
2624;SDS011;1322;53.256;10.386;2022-10-16T05:08:23;6.07;;;2.10;;
2624;SDS011;1322;53.256;10.386;2022-10-16T05:10:48;3.43;;;2.20;;
2624;SDS011;1322;53.256;10.386;2022-10-16T05:13:14;3.63;;;1.80;;
2624;SDS011;1322;53.256;10.386;2022-10-16T05:15:39;7.53;;;2.93;;
2624;SDS011;1322;53.256;10.386;2022-10-16T05:18:05;5.13;;;2.50;;
2624;SDS011;1322;53.256;10.386;2022-10-16T05:20:31;2.70;;;1.80;;
2624;SDS011;1322;53.256;10.386;2022-10-16T05:22:56;4.77;;;1.97;;
2624;SDS011;1322;53.256;10.386;2022-10-16T05:25:22;2.27;;;1.80;;
2624;SDS011;1322;53.256;10.386;2022-10-16T05:27:48;3.60;;;2.27;;
2624;SDS011;1322;53.256;10.386;2022-10-16T05:30:14;4.07;;;2.63;;
2624;SDS011;1322;53.256;10.386;2022-10-16T05:32:41;3.40;;;2.07;;
2624;SDS011;1322;53.256;10.386;2022-10-16T05:35:06;5.07;;;2.50;;
2624;SDS011;1322;53.256;10.386;2022-10-16T05:37:32;5.50;;;2.30;;
2624;SDS011;1322;53.256;10.386;2022-10-16T05:39:57;5.60;;;2.23;;
2624;SDS011;1322;53.256;10.386;2022-10-16T05:42:23;4.03;;;2.67;;
2624;SDS011;1322;53.256;10.386;2022-10-16T05:44:49;3.60;;;2.10;;
2624;SDS011;1322;53.256;10.386;2022-10-16T05:47:14;12.63;;;2.20;;
2624;SDS011;1322;53.256;10.386;2022-10-16T05:49:40;2.70;;;2.30;;
2624;SDS011;1322;53.256;10.386;2022-10-16T05:52:06;5.83;;;2.33;;
2624;SDS011;1322;53.256;10.386;2022-10-16T05:54:31;3.57;;;2.50;;
2624;SDS011;1322;53.256;10.386;2022-10-16T05:56:57;4.90;;;2.00;;
2624;SDS011;1322;53.256;10.386;2022-10-16T05:59:22;5.03;;;2.17;;
2624;SDS011;1322;53.256;10.386;2022-10-16T06:01:48;5.17;;;2.63;;
2624;SDS011;1322;53.256;10.386;2022-10-16T06:04:14;4.27;;;2.50;;
2624;SDS011;1322;53.256;10.386;2022-10-16T06:06:39;3.17;;;2.30;;
2624;SDS011;1322;53.256;10.386;2022-10-16T06:09:05;3.57;;;2.20;;
2624;SDS011;1322;53.256;10.386;2022-10-16T06:11:31;6.40;;;2.33;;
2624;SDS011;1322;53.256;10.386;2022-10-16T06:13:58;6.63;;;2.60;;
2624;SDS011;1322;53.256;10.386;2022-10-16T06:16:26;6.43;;;2.20;;
2624;SDS011;1322;53.256;10.386;2022-10-16T06:18:53;2.97;;;2.10;;
2624;SDS011;1322;53.256;10.386;2022-10-16T06:21:21;4.07;;;2.30;;
2624;SDS011;1322;53.256;10.386;2022-10-16T06:23:50;4.00;;;1.90;;
2624;SDS011;1322;53.256;10.386;2022-10-16T06:26:18;10.10;;;2.80;;
2624;SDS011;1322;53.256;10.386;2022-10-16T06:28:45;4.27;;;2.40;;
2624;SDS011;1322;53.256;10.386;2022-10-16T06:31:11;4.30;;;2.60;;
2624;SDS011;1322;53.256;10.386;2022-10-16T06:33:37;2.70;;;2.17;;
2624;SDS011;1322;53.256;10.386;2022-10-16T06:36:13;3.80;;;2.20;;
2624;SDS011;1322;53.256;10.386;2022-10-16T06:38:41;4.57;;;2.10;;
2624;SDS011;1322;53.256;10.386;2022-10-16T06:41:07;4.80;;;2.27;;
2624;SDS011;1322;53.256;10.386;2022-10-16T06:43:36;6.40;;;2.30;;
2624;SDS011;1322;53.256;10.386;2022-10-16T06:46:02;9.23;;;2.27;;
2624;SDS011;1322;53.256;10.386;2022-10-16T06:48:29;3.87;;;2.17;;
2624;SDS011;1322;53.256;10.386;2022-10-16T06:51:03;5.53;;;2.40;;
2624;SDS011;1322;53.256;10.386;2022-10-16T06:53:35;8.03;;;2.87;;
2624;SDS011;1322;53.256;10.386;2022-10-16T06:56:10;10.33;;;2.47;;
2624;SDS011;1322;53.256;10.386;2022-10-16T06:58:36;3.23;;;2.20;;
2624;SDS011;1322;53.256;10.386;2022-10-16T07:01:02;4.40;;;2.40;;
2624;SDS011;1322;53.256;10.386;2022-10-16T07:03:28;6.10;;;2.80;;
2624;SDS011;1322;53.256;10.386;2022-10-16T07:05:54;9.57;;;2.40;;
2624;SDS011;1322;53.256;10.386;2022-10-16T07:08:20;3.53;;;2.40;;
2624;SDS011;1322;53.256;10.386;2022-10-16T07:10:45;2.83;;;2.40;;
2624;SDS011;1322;53.256;10.386;2022-10-16T07:13:11;4.27;;;2.20;;
2624;SDS011;1322;53.256;10.386;2022-10-16T07:15:38;4.77;;;2.40;;
2624;SDS011;1322;53.256;10.386;2022-10-16T07:18:04;5.20;;;2.83;;
2624;SDS011;1322;53.256;10.386;2022-10-16T07:20:30;9.43;;;2.90;;
2624;SDS011;1322;53.256;10.386;2022-10-16T07:22:55;3.60;;;2.23;;
2624;SDS011;1322;53.256;10.386;2022-10-16T07:25:21;22.60;;;17.30;;
2624;SDS011;1322;53.256;10.386;2022-10-16T07:27:47;14.90;;;6.70;;
2624;SDS011;1322;53.256;10.386;2022-10-16T07:30:12;6.57;;;3.30;;
2624;SDS011;1322;53.256;10.386;2022-10-16T07:32:38;4.10;;;2.20;;
2624;SDS011;1322;53.256;10.386;2022-10-16T07:35:03;5.43;;;2.40;;
2624;SDS011;1322;53.256;10.386;2022-10-16T07:37:29;6.60;;;2.83;;
2624;SDS011;1322;53.256;10.386;2022-10-16T07:39:55;4.53;;;1.90;;
2624;SDS011;1322;53.256;10.386;2022-10-16T07:42:20;3.40;;;2.20;;
2624;SDS011;1322;53.256;10.386;2022-10-16T07:44:46;2.90;;;2.33;;
2624;SDS011;1322;53.256;10.386;2022-10-16T07:47:12;2.90;;;2.10;;
2624;SDS011;1322;53.256;10.386;2022-10-16T07:49:37;3.60;;;2.10;;
2624;SDS011;1322;53.256;10.386;2022-10-16T07:52:03;2.63;;;2.43;;
2624;SDS011;1322;53.256;10.386;2022-10-16T07:54:28;5.97;;;2.60;;
2624;SDS011;1322;53.256;10.386;2022-10-16T07:56:54;2.63;;;1.97;;
2624;SDS011;1322;53.256;10.386;2022-10-16T07:59:20;2.63;;;1.83;;
2624;SDS011;1322;53.256;10.386;2022-10-16T08:01:45;4.23;;;2.90;;
2624;SDS011;1322;53.256;10.386;2022-10-16T08:04:11;3.50;;;2.00;;
2624;SDS011;1322;53.256;10.386;2022-10-16T08:06:38;3.83;;;2.20;;
2624;SDS011;1322;53.256;10.386;2022-10-16T08:09:05;3.77;;;2.10;;
2624;SDS011;1322;53.256;10.386;2022-10-16T08:11:31;5.90;;;2.37;;
2624;SDS011;1322;53.256;10.386;2022-10-16T08:13:57;5.17;;;1.90;;
2624;SDS011;1322;53.256;10.386;2022-10-16T08:16:23;4.47;;;1.93;;
2624;SDS011;1322;53.256;10.386;2022-10-16T08:18:49;6.93;;;1.90;;
2624;SDS011;1322;53.256;10.386;2022-10-16T08:21:16;3.50;;;1.70;;
2624;SDS011;1322;53.256;10.386;2022-10-16T08:23:44;5.80;;;2.07;;
2624;SDS011;1322;53.256;10.386;2022-10-16T08:26:10;5.80;;;1.83;;
2624;SDS011;1322;53.256;10.386;2022-10-16T08:28:36;3.80;;;2.00;;
2624;SDS011;1322;53.256;10.386;2022-10-16T08:31:08;2.93;;;1.67;;
2624;SDS011;1322;53.256;10.386;2022-10-16T08:33:36;8.53;;;6.50;;
2624;SDS011;1322;53.256;10.386;2022-10-16T08:36:03;5.20;;;3.90;;
2624;SDS011;1322;53.256;10.386;2022-10-16T08:38:30;4.27;;;2.97;;
2624;SDS011;1322;53.256;10.386;2022-10-16T08:40:58;3.23;;;2.93;;
2624;SDS011;1322;53.256;10.386;2022-10-16T08:43:55;10.17;;;2.77;;
2624;SDS011;1322;53.256;10.386;2022-10-16T08:47:25;5.00;;;1.90;;
2624;SDS011;1322;53.256;10.386;2022-10-16T08:49:40;2.93;;;1.90;;
2624;SDS011;1322;53.256;10.386;2022-10-16T08:52:10;4.77;;;2.27;;
2624;SDS011;1322;53.256;10.386;2022-10-16T08:54:41;3.37;;;1.90;;
2624;SDS011;1322;53.256;10.386;2022-10-16T08:57:14;4.07;;;2.10;;
2624;SDS011;1322;53.256;10.386;2022-10-16T08:59:43;2.60;;;1.80;;
2624;SDS011;1322;53.256;10.386;2022-10-16T09:10:32;2.20;;;1.47;;
2624;SDS011;1322;53.256;10.386;2022-10-16T09:13:12;5.30;;;2.93;;
2624;SDS011;1322;53.256;10.386;2022-10-16T09:21:01;1.67;;;1.50;;
2624;SDS011;1322;53.256;10.386;2022-10-16T09:23:48;2.20;;;1.70;;
2624;SDS011;1322;53.256;10.386;2022-10-16T09:26:15;4.57;;;2.10;;
2624;SDS011;1322;53.256;10.386;2022-10-16T09:28:42;4.77;;;1.70;;
2624;SDS011;1322;53.256;10.386;2022-10-16T09:31:18;2.80;;;1.40;;
2624;SDS011;1322;53.256;10.386;2022-10-16T09:33:48;5.00;;;1.60;;
2624;SDS011;1322;53.256;10.386;2022-10-16T09:36:20;3.93;;;2.13;;
2624;SDS011;1322;53.256;10.386;2022-10-16T09:38:48;4.80;;;1.50;;
2624;SDS011;1322;53.256;10.386;2022-10-16T09:41:16;1.60;;;1.30;;
2624;SDS011;1322;53.256;10.386;2022-10-16T09:46:40;2.07;;;1.37;;
2624;SDS011;1322;53.256;10.386;2022-10-16T09:49:17;12.37;;;2.20;;
2624;SDS011;1322;53.256;10.386;2022-10-16T09:51:48;7.20;;;1.77;;
2624;SDS011;1322;53.256;10.386;2022-10-16T09:54:16;4.83;;;1.57;;
2624;SDS011;1322;53.256;10.386;2022-10-16T09:56:43;2.90;;;1.57;;
2624;SDS011;1322;53.256;10.386;2022-10-16T09:59:15;1.87;;;1.10;;
2624;SDS011;1322;53.256;10.386;2022-10-16T10:01:51;1.50;;;0.93;;
2624;SDS011;1322;53.256;10.386;2022-10-16T10:04:19;2.07;;;1.40;;
2624;SDS011;1322;53.256;10.386;2022-10-16T10:06:49;1.90;;;1.30;;
2624;SDS011;1322;53.256;10.386;2022-10-16T10:16:49;3.67;;;2.50;;
2624;SDS011;1322;53.256;10.386;2022-10-16T10:19:21;3.70;;;1.10;;
2624;SDS011;1322;53.256;10.386;2022-10-16T10:21:48;2.47;;;1.20;;
2624;SDS011;1322;53.256;10.386;2022-10-16T10:24:16;3.50;;;1.70;;
2624;SDS011;1322;53.256;10.386;2022-10-16T10:27:06;3.20;;;1.00;;
2624;SDS011;1322;53.256;10.386;2022-10-16T10:29:46;3.23;;;1.10;;
2624;SDS011;1322;53.256;10.386;2022-10-16T10:32:28;3.67;;;1.60;;
2624;SDS011;1322;53.256;10.386;2022-10-16T10:43:13;4.77;;;1.53;;
2624;SDS011;1322;53.256;10.386;2022-10-16T10:45:52;4.83;;;1.27;;
2624;SDS011;1322;53.256;10.386;2022-10-16T10:49:07;3.97;;;1.30;;
2624;SDS011;1322;53.256;10.386;2022-10-16T10:54:11;1.97;;;1.00;;
2624;SDS011;1322;53.256;10.386;2022-10-16T10:56:51;4.63;;;1.73;;
2624;SDS011;1322;53.256;10.386;2022-10-16T11:02:21;2.13;;;0.93;;
2624;SDS011;1322;53.256;10.386;2022-10-16T11:08:03;1.77;;;1.07;;
2624;SDS011;1322;53.256;10.386;2022-10-16T11:10:36;3.93;;;1.07;;
2624;SDS011;1322;53.256;10.386;2022-10-16T11:13:22;2.13;;;0.80;;
2624;SDS011;1322;53.256;10.386;2022-10-16T11:16:26;3.40;;;1.87;;
2624;SDS011;1322;53.256;10.386;2022-10-16T11:22:16;6.80;;;1.50;;
2624;SDS011;1322;53.256;10.386;2022-10-16T11:25:04;8.70;;;1.10;;
2624;SDS011;1322;53.256;10.386;2022-10-16T11:27:45;6.17;;;1.40;;
2624;SDS011;1322;53.256;10.386;2022-10-16T11:30:25;3.00;;;1.30;;
2624;SDS011;1322;53.256;10.386;2022-10-16T11:33:00;7.83;;;1.50;;
2624;SDS011;1322;53.256;10.386;2022-10-16T11:35:44;2.70;;;1.37;;
2624;SDS011;1322;53.256;10.386;2022-10-16T11:38:50;3.00;;;1.10;;
2624;SDS011;1322;53.256;10.386;2022-10-16T11:41:34;4.20;;;1.80;;
2624;SDS011;1322;53.256;10.386;2022-10-16T11:46:32;3.30;;;1.23;;
2624;SDS011;1322;53.256;10.386;2022-10-16T11:49:14;2.70;;;1.10;;
2624;SDS011;1322;53.256;10.386;2022-10-16T11:51:45;3.73;;;1.40;;
2624;SDS011;1322;53.256;10.386;2022-10-16T11:54:22;2.00;;;1.17;;
2624;SDS011;1322;53.256;10.386;2022-10-16T11:57:09;4.83;;;1.30;;
2624;SDS011;1322;53.256;10.386;2022-10-16T12:07:50;4.27;;;1.20;;
2624;SDS011;1322;53.256;10.386;2022-10-16T12:10:21;3.30;;;1.70;;
2624;SDS011;1322;53.256;10.386;2022-10-16T12:12:49;2.87;;;1.10;;
2624;SDS011;1322;53.256;10.386;2022-10-16T12:17:47;4.57;;;1.03;;
2624;SDS011;1322;53.256;10.386;2022-10-16T12:22:42;4.83;;;1.30;;
2624;SDS011;1322;53.256;10.386;2022-10-16T12:25:20;2.13;;;1.17;;
2624;SDS011;1322;53.256;10.386;2022-10-16T12:27:53;2.13;;;1.20;;
2624;SDS011;1322;53.256;10.386;2022-10-16T12:30:52;2.03;;;1.43;;
2624;SDS011;1322;53.256;10.386;2022-10-16T12:33:27;2.60;;;1.20;;
2624;SDS011;1322;53.256;10.386;2022-10-16T12:35:58;1.63;;;1.20;;
2624;SDS011;1322;53.256;10.386;2022-10-16T12:38:30;5.23;;;1.10;;
2624;SDS011;1322;53.256;10.386;2022-10-16T12:41:10;8.10;;;3.20;;
2624;SDS011;1322;53.256;10.386;2022-10-16T12:43:41;5.73;;;1.30;;
2624;SDS011;1322;53.256;10.386;2022-10-16T12:48:33;2.20;;;1.10;;
2624;SDS011;1322;53.256;10.386;2022-10-16T12:51:10;3.40;;;1.40;;
2624;SDS011;1322;53.256;10.386;2022-10-16T12:53:38;7.13;;;2.10;;
2624;SDS011;1322;53.256;10.386;2022-10-16T12:56:25;3.73;;;1.17;;
2624;SDS011;1322;53.256;10.386;2022-10-16T13:04:55;3.53;;;1.37;;
2624;SDS011;1322;53.256;10.386;2022-10-16T13:07:41;4.40;;;1.60;;
2624;SDS011;1322;53.256;10.386;2022-10-16T13:15:45;3.53;;;1.37;;
2624;SDS011;1322;53.256;10.386;2022-10-16T13:18:40;1.77;;;1.50;;
2624;SDS011;1322;53.256;10.386;2022-10-16T13:24:25;4.13;;;1.20;;
2624;SDS011;1322;53.256;10.386;2022-10-16T13:32:48;3.93;;;1.67;;
2624;SDS011;1322;53.256;10.386;2022-10-16T13:35:20;4.63;;;1.90;;
2624;SDS011;1322;53.256;10.386;2022-10-16T13:37:47;5.50;;;1.20;;
2624;SDS011;1322;53.256;10.386;2022-10-16T13:40:18;3.60;;;1.20;;
2624;SDS011;1322;53.256;10.386;2022-10-16T13:42:48;2.53;;;1.20;;
2624;SDS011;1322;53.256;10.386;2022-10-16T13:45:21;5.30;;;1.77;;
2624;SDS011;1322;53.256;10.386;2022-10-16T13:47:50;3.50;;;1.40;;
2624;SDS011;1322;53.256;10.386;2022-10-16T13:50:26;4.23;;;1.30;;
2624;SDS011;1322;53.256;10.386;2022-10-16T13:52:52;1.63;;;1.13;;
2624;SDS011;1322;53.256;10.386;2022-10-16T13:55:28;10.00;;;1.77;;
2624;SDS011;1322;53.256;10.386;2022-10-16T13:58:04;4.33;;;1.40;;
2624;SDS011;1322;53.256;10.386;2022-10-16T14:00:33;2.77;;;1.50;;
2624;SDS011;1322;53.256;10.386;2022-10-16T14:03:03;2.60;;;1.17;;
2624;SDS011;1322;53.256;10.386;2022-10-16T14:05:31;2.80;;;1.47;;
2624;SDS011;1322;53.256;10.386;2022-10-16T14:07:57;4.93;;;1.50;;
2624;SDS011;1322;53.256;10.386;2022-10-16T14:10:30;2.77;;;1.00;;
2624;SDS011;1322;53.256;10.386;2022-10-16T14:13:01;6.33;;;3.33;;
2624;SDS011;1322;53.256;10.386;2022-10-16T14:15:30;2.70;;;1.00;;
2624;SDS011;1322;53.256;10.386;2022-10-16T14:17:57;6.63;;;1.60;;
2624;SDS011;1322;53.256;10.386;2022-10-16T14:20:31;4.10;;;1.40;;
2624;SDS011;1322;53.256;10.386;2022-10-16T14:23:17;3.37;;;1.47;;
2624;SDS011;1322;53.256;10.386;2022-10-16T14:25:47;2.77;;;1.30;;
2624;SDS011;1322;53.256;10.386;2022-10-16T14:30:50;2.80;;;1.50;;
2624;SDS011;1322;53.256;10.386;2022-10-16T14:38:29;2.80;;;1.40;;
2624;SDS011;1322;53.256;10.386;2022-10-16T14:40:57;6.43;;;1.60;;
2624;SDS011;1322;53.256;10.386;2022-10-16T14:45:59;2.80;;;1.23;;
2624;SDS011;1322;53.256;10.386;2022-10-16T14:48:28;3.67;;;1.50;;
2624;SDS011;1322;53.256;10.386;2022-10-16T14:50:54;2.33;;;1.13;;
2624;SDS011;1322;53.256;10.386;2022-10-16T14:53:20;2.07;;;1.07;;
2624;SDS011;1322;53.256;10.386;2022-10-16T14:55:45;6.10;;;1.70;;
2624;SDS011;1322;53.256;10.386;2022-10-16T14:58:13;3.43;;;1.50;;
2624;SDS011;1322;53.256;10.386;2022-10-16T15:00:42;4.87;;;1.30;;
2624;SDS011;1322;53.256;10.386;2022-10-16T15:03:08;3.83;;;1.40;;
2624;SDS011;1322;53.256;10.386;2022-10-16T15:05:34;7.47;;;1.83;;
2624;SDS011;1322;53.256;10.386;2022-10-16T15:07:59;7.90;;;2.23;;
2624;SDS011;1322;53.256;10.386;2022-10-16T15:10:26;6.20;;;1.40;;
2624;SDS011;1322;53.256;10.386;2022-10-16T15:12:53;3.20;;;1.40;;
2624;SDS011;1322;53.256;10.386;2022-10-16T15:17:48;7.07;;;1.63;;
2624;SDS011;1322;53.256;10.386;2022-10-16T15:20:17;3.43;;;1.80;;
2624;SDS011;1322;53.256;10.386;2022-10-16T15:22:43;5.10;;;1.50;;
2624;SDS011;1322;53.256;10.386;2022-10-16T15:25:12;2.93;;;1.43;;
2624;SDS011;1322;53.256;10.386;2022-10-16T15:28:02;2.13;;;1.23;;
2624;SDS011;1322;53.256;10.386;2022-10-16T15:30:28;7.30;;;2.10;;
2624;SDS011;1322;53.256;10.386;2022-10-16T15:32:54;2.40;;;1.40;;
2624;SDS011;1322;53.256;10.386;2022-10-16T15:35:20;3.30;;;1.40;;
2624;SDS011;1322;53.256;10.386;2022-10-16T15:37:46;6.50;;;1.67;;
2624;SDS011;1322;53.256;10.386;2022-10-16T15:40:13;5.90;;;2.47;;
2624;SDS011;1322;53.256;10.386;2022-10-16T15:42:40;5.77;;;2.40;;
2624;SDS011;1322;53.256;10.386;2022-10-16T15:45:06;8.33;;;4.30;;
2624;SDS011;1322;53.256;10.386;2022-10-16T15:47:33;16.47;;;5.60;;
2624;SDS011;1322;53.256;10.386;2022-10-16T15:49:59;6.10;;;4.10;;
2624;SDS011;1322;53.256;10.386;2022-10-16T15:52:24;10.20;;;3.17;;
2624;SDS011;1322;53.256;10.386;2022-10-16T15:54:50;5.40;;;2.67;;
2624;SDS011;1322;53.256;10.386;2022-10-16T15:57:15;8.20;;;2.20;;
2624;SDS011;1322;53.256;10.386;2022-10-16T15:59:41;7.10;;;2.17;;
2624;SDS011;1322;53.256;10.386;2022-10-16T16:02:07;5.50;;;1.97;;
2624;SDS011;1322;53.256;10.386;2022-10-16T16:04:33;6.47;;;1.87;;
2624;SDS011;1322;53.256;10.386;2022-10-16T16:06:59;8.57;;;2.17;;
2624;SDS011;1322;53.256;10.386;2022-10-16T16:09:26;8.77;;;4.60;;
2624;SDS011;1322;53.256;10.386;2022-10-16T16:11:53;14.93;;;10.30;;
2624;SDS011;1322;53.256;10.386;2022-10-16T16:14:19;8.57;;;5.33;;
2624;SDS011;1322;53.256;10.386;2022-10-16T16:16:45;23.00;;;18.13;;
2624;SDS011;1322;53.256;10.386;2022-10-16T16:19:11;24.33;;;20.00;;
2624;SDS011;1322;53.256;10.386;2022-10-16T16:21:36;26.77;;;23.93;;
2624;SDS011;1322;53.256;10.386;2022-10-16T16:24:02;41.23;;;36.97;;
2624;SDS011;1322;53.256;10.386;2022-10-16T16:26:32;37.43;;;31.70;;
2624;SDS011;1322;53.256;10.386;2022-10-16T16:29:01;23.50;;;18.00;;
2624;SDS011;1322;53.256;10.386;2022-10-16T16:31:28;19.83;;;14.43;;
2624;SDS011;1322;53.256;10.386;2022-10-16T16:33:56;20.63;;;16.40;;
2624;SDS011;1322;53.256;10.386;2022-10-16T16:36:22;15.60;;;11.00;;
2624;SDS011;1322;53.256;10.386;2022-10-16T16:38:48;13.60;;;12.30;;
2624;SDS011;1322;53.256;10.386;2022-10-16T16:41:21;15.03;;;8.50;;
2624;SDS011;1322;53.256;10.386;2022-10-16T16:43:48;9.70;;;7.40;;
2624;SDS011;1322;53.256;10.386;2022-10-16T16:46:16;43.33;;;39.27;;
2624;SDS011;1322;53.256;10.386;2022-10-16T16:48:42;27.90;;;25.13;;
2624;SDS011;1322;53.256;10.386;2022-10-16T16:51:15;25.33;;;21.60;;
2624;SDS011;1322;53.256;10.386;2022-10-16T16:53:46;12.00;;;7.77;;
2624;SDS011;1322;53.256;10.386;2022-10-16T16:56:13;7.10;;;6.50;;
2624;SDS011;1322;53.256;10.386;2022-10-16T16:58:40;14.27;;;12.77;;
2624;SDS011;1322;53.256;10.386;2022-10-16T17:01:06;10.10;;;8.37;;
2624;SDS011;1322;53.256;10.386;2022-10-16T17:03:34;14.73;;;13.20;;
2624;SDS011;1322;53.256;10.386;2022-10-16T17:06:07;13.37;;;10.73;;
2624;SDS011;1322;53.256;10.386;2022-10-16T17:08:36;18.57;;;12.20;;